createdAt,value
2019-01-13T00:01:26.661Z,18.83
2019-01-13T00:03:56.985Z,15.77
2019-01-13T00:06:26.988Z,22.07
2019-01-13T00:08:57.025Z,18.87
2019-01-13T00:11:28.302Z,38.47
2019-01-13T00:13:58.119Z,33.13
2019-01-13T00:16:28.127Z,23.53
2019-01-13T00:18:58.147Z,20.33
2019-01-13T00:21:28.079Z,22.20
2019-01-13T00:23:58.015Z,16.77
2019-01-13T00:26:28.132Z,21.00
2019-01-13T00:28:58.179Z,33.40
2019-01-13T00:31:28.080Z,27.67
2019-01-13T00:33:58.039Z,24.53
2019-01-13T00:36:27.956Z,16.40
2019-01-13T00:38:57.855Z,55.80
2019-01-13T00:41:27.827Z,76.60
2019-01-13T00:43:58.099Z,23.97
2019-01-13T00:46:28.016Z,22.80
2019-01-13T00:48:57.935Z,17.97
2019-01-13T00:51:27.747Z,12.63
2019-01-13T00:53:57.848Z,18.23
2019-01-13T00:56:27.575Z,22.30
2019-01-13T00:58:57.571Z,14.37
2019-01-13T01:01:27.635Z,13.03
2019-01-13T01:03:57.703Z,20.90
2019-01-13T01:06:28.940Z,19.43
2019-01-13T01:08:59.193Z,15.33
2019-01-13T01:11:29.224Z,16.70
2019-01-13T01:13:59.227Z,15.13
2019-01-13T01:16:29.270Z,10.93
2019-01-13T01:18:59.311Z,11.70
2019-01-13T01:21:30.263Z,16.13
2019-01-13T01:24:00.351Z,11.60
2019-01-13T01:26:30.355Z,17.73
2019-01-13T01:29:00.331Z,35.47
2019-01-13T01:31:30.472Z,36.23
2019-01-13T01:34:00.465Z,53.73
2019-01-13T01:36:30.503Z,100.20
2019-01-13T01:39:00.389Z,55.03
2019-01-13T01:41:30.547Z,19.93
2019-01-13T01:44:12.040Z,18.47
2019-01-13T01:46:44.387Z,17.80
2019-01-13T01:49:14.491Z,22.50
2019-01-13T01:51:45.262Z,16.53
2019-01-13T01:54:15.054Z,12.67
2019-01-13T01:56:45.056Z,14.33
2019-01-13T01:59:15.083Z,22.53
2019-01-13T02:01:45.076Z,17.13
2019-01-13T02:04:15.222Z,26.33
2019-01-13T02:06:46.115Z,34.70
2019-01-13T02:09:16.275Z,21.47
2019-01-13T02:11:46.159Z,41.57
2019-01-13T02:14:16.219Z,16.27
2019-01-13T02:16:46.067Z,15.13
2019-01-13T02:19:16.262Z,23.10
2019-01-13T02:21:46.193Z,21.70
2019-01-13T02:24:16.256Z,20.07
2019-01-13T02:26:46.051Z,68.87
2019-01-13T02:29:15.891Z,64.97
2019-01-13T02:31:45.890Z,34.77
2019-01-13T02:34:15.734Z,48.50
2019-01-13T02:36:45.605Z,43.27
2019-01-13T02:39:15.622Z,36.77
2019-01-13T02:41:45.844Z,36.10
2019-01-13T02:44:15.878Z,51.70
2019-01-13T02:46:46.940Z,60.17
2019-01-13T02:49:17.127Z,47.97
2019-01-13T02:51:47.319Z,54.07
2019-01-13T02:54:17.323Z,34.03
2019-01-13T02:56:47.387Z,32.13
2019-01-13T02:59:17.354Z,24.17
2019-01-13T03:01:47.228Z,24.07
2019-01-13T03:04:17.133Z,26.60
2019-01-13T03:06:46.934Z,15.60
2019-01-13T03:09:16.856Z,20.47
2019-01-13T03:11:46.771Z,23.53
2019-01-13T03:14:16.663Z,25.77
2019-01-13T03:16:46.707Z,18.73
2019-01-13T03:19:16.628Z,35.93
2019-01-13T03:21:46.530Z,14.63
2019-01-13T03:24:16.375Z,27.97
2019-01-13T03:26:46.352Z,11.30
2019-01-13T03:29:16.365Z,25.60
2019-01-13T03:31:47.477Z,32.63
2019-01-13T03:34:17.312Z,24.50
2019-01-13T03:36:47.340Z,22.37
2019-01-13T03:39:17.143Z,19.57
2019-01-13T03:41:47.161Z,17.20
2019-01-13T03:44:17.194Z,14.27
2019-01-13T03:46:47.208Z,16.00
2019-01-13T03:49:17.224Z,21.57
2019-01-13T03:51:47.111Z,17.20
2019-01-13T03:54:17.046Z,15.07
2019-01-13T03:56:46.972Z,13.17
2019-01-13T03:59:16.975Z,10.73
2019-01-13T04:01:46.920Z,19.37
2019-01-13T04:04:16.879Z,39.63
2019-01-13T04:06:49.047Z,36.23
2019-01-13T04:09:18.991Z,26.07
2019-01-13T04:11:49.007Z,34.20
2019-01-13T04:14:19.007Z,13.77
2019-01-13T04:16:49.246Z,12.53
2019-01-13T04:19:19.259Z,12.30
2019-01-13T04:21:49.376Z,14.00
2019-01-13T04:24:19.399Z,12.20
2019-01-13T04:26:49.312Z,18.23
2019-01-13T04:29:19.407Z,15.17
2019-01-13T04:31:49.324Z,14.10
2019-01-13T04:34:19.348Z,21.63
2019-01-13T04:36:49.256Z,14.30
2019-01-13T04:39:19.221Z,15.90
2019-01-13T04:41:49.080Z,7.97
2019-01-13T04:44:19.095Z,15.13
2019-01-13T04:46:49.120Z,15.93
2019-01-13T04:49:19.013Z,20.60
2019-01-13T04:51:49.059Z,13.33
2019-01-13T04:54:19.058Z,9.57
2019-01-13T04:56:49.071Z,13.77
2019-01-13T04:59:19.048Z,12.97
2019-01-13T05:01:48.931Z,16.73
2019-01-13T05:04:18.743Z,8.53
2019-01-13T05:06:48.523Z,13.20
2019-01-13T05:09:19.968Z,19.77
2019-01-13T05:11:50.099Z,18.53
2019-01-13T05:14:19.991Z,22.00
2019-01-13T05:16:50.035Z,19.90
2019-01-13T05:19:20.013Z,23.27
2019-01-13T05:21:50.035Z,23.30
2019-01-13T05:24:21.547Z,12.70
2019-01-13T05:26:51.535Z,21.50
2019-01-13T05:29:21.659Z,19.43
2019-01-13T05:31:51.699Z,11.23
2019-01-13T05:34:21.688Z,13.60
2019-01-13T05:36:51.469Z,12.93
2019-01-13T05:39:21.520Z,18.57
2019-01-13T05:41:51.631Z,14.70
2019-01-13T05:44:21.416Z,9.30
2019-01-13T05:46:51.466Z,13.70
2019-01-13T05:49:21.543Z,15.27
2019-01-13T05:51:51.575Z,13.77
2019-01-13T05:54:21.550Z,10.27
2019-01-13T05:56:51.445Z,9.00
2019-01-13T05:59:21.637Z,9.97
2019-01-13T06:01:53.691Z,11.13
2019-01-13T06:04:23.605Z,15.07
2019-01-13T06:06:53.619Z,13.83
2019-01-13T06:09:23.555Z,12.07
2019-01-13T06:11:53.879Z,19.80
2019-01-13T06:14:23.974Z,15.17
2019-01-13T06:16:53.963Z,12.13
2019-01-13T06:19:24.233Z,9.40
2019-01-13T06:21:54.328Z,14.30
2019-01-13T06:24:24.265Z,12.47
2019-01-13T06:26:54.279Z,12.67
2019-01-13T06:29:24.279Z,12.63
2019-01-13T06:31:56.661Z,11.60
2019-01-13T06:34:26.551Z,13.20
2019-01-13T06:36:56.700Z,10.00
2019-01-13T06:39:26.599Z,16.17
2019-01-13T06:41:56.512Z,10.90
2019-01-13T06:44:26.528Z,13.63
2019-01-13T06:46:56.431Z,7.27
2019-01-13T06:49:26.736Z,11.30
2019-01-13T06:51:56.779Z,11.67
2019-01-13T06:54:26.791Z,11.73
2019-01-13T06:56:56.932Z,11.40
2019-01-13T06:59:26.927Z,13.47
2019-01-13T07:02:03.199Z,9.50
2019-01-13T07:04:28.511Z,13.10
2019-01-13T07:06:58.439Z,14.47
2019-01-13T07:09:28.327Z,13.80
2019-01-13T07:11:58.351Z,14.03
2019-01-13T07:14:28.363Z,10.63
2019-01-13T07:16:58.367Z,12.40
2019-01-13T07:19:28.196Z,11.67
2019-01-13T07:21:58.227Z,12.60
2019-01-13T07:24:28.204Z,12.30
2019-01-13T07:26:58.266Z,10.40
2019-01-13T07:29:28.283Z,13.43
2019-01-13T07:31:58.387Z,14.57
2019-01-13T07:34:28.292Z,9.73
2019-01-13T07:36:58.215Z,13.30
2019-01-13T07:39:28.119Z,11.97
2019-01-13T07:41:58.050Z,18.10
2019-01-13T07:44:28.051Z,19.03
2019-01-13T07:46:57.715Z,17.00
2019-01-13T07:49:27.779Z,17.43
2019-01-13T07:51:57.895Z,10.00
2019-01-13T07:54:27.783Z,10.40
2019-01-13T07:56:57.827Z,14.90
2019-01-13T07:59:27.739Z,14.90
2019-01-13T08:01:57.976Z,14.70
2019-01-13T08:04:28.187Z,28.77
2019-01-13T08:06:58.471Z,17.53
2019-01-13T08:09:28.619Z,17.20
2019-01-13T08:11:58.608Z,14.00
2019-01-13T08:14:28.770Z,11.07
2019-01-13T08:16:58.750Z,18.33
2019-01-13T08:19:28.812Z,17.53
2019-01-13T08:21:58.583Z,17.67
2019-01-13T08:24:29.157Z,15.77
2019-01-13T08:26:59.342Z,17.23
2019-01-13T08:29:29.238Z,13.37
2019-01-13T08:31:59.359Z,16.67
2019-01-13T08:34:29.427Z,11.70
2019-01-13T08:36:59.299Z,11.13
2019-01-13T08:39:29.339Z,10.23
2019-01-13T08:42:01.096Z,12.00
2019-01-13T08:44:32.453Z,12.70
2019-01-13T08:47:02.495Z,10.13
2019-01-13T08:49:32.340Z,10.50
2019-01-13T08:52:02.275Z,12.37
2019-01-13T08:54:33.475Z,7.67
2019-01-13T08:57:03.307Z,7.20
2019-01-13T08:59:33.243Z,9.60
2019-01-13T09:02:03.135Z,11.17
2019-01-13T09:04:33.057Z,6.80
2019-01-13T09:07:02.891Z,10.07
2019-01-13T09:09:32.763Z,13.03
2019-01-13T09:12:02.801Z,8.83
2019-01-13T09:14:32.823Z,7.07
2019-01-13T09:17:03.937Z,9.73
2019-01-13T09:19:34.044Z,10.50
2019-01-13T09:22:04.387Z,8.03
2019-01-13T09:24:34.315Z,10.20
2019-01-13T09:27:04.435Z,16.30
2019-01-13T09:29:34.243Z,14.17
2019-01-13T09:32:04.044Z,11.87
2019-01-13T09:34:34.167Z,9.07
2019-01-13T09:37:03.983Z,6.73
2019-01-13T09:39:34.140Z,11.97
2019-01-13T09:42:04.020Z,4.63
2019-01-13T09:44:34.134Z,12.97
2019-01-13T09:47:05.275Z,15.43
2019-01-13T09:49:35.395Z,8.47
2019-01-13T09:52:05.499Z,10.77
2019-01-13T09:54:35.430Z,8.50
2019-01-13T09:57:05.343Z,9.63
2019-01-13T09:59:35.249Z,12.03
2019-01-13T10:02:05.383Z,9.60
2019-01-13T10:04:35.415Z,10.73
2019-01-13T10:07:05.499Z,14.97
2019-01-13T10:09:36.351Z,6.50
2019-01-13T10:12:06.255Z,7.20
2019-01-13T10:14:36.151Z,10.53
2019-01-13T10:17:06.101Z,14.00
2019-01-13T10:19:35.920Z,11.90
2019-01-13T10:22:05.816Z,11.30
2019-01-13T10:24:35.613Z,8.50
2019-01-13T10:27:05.747Z,8.43
2019-01-13T10:29:35.691Z,5.00
2019-01-13T10:32:05.888Z,7.60
2019-01-13T10:34:35.800Z,3.90
2019-01-13T10:37:05.997Z,9.10
2019-01-13T10:39:35.924Z,8.10
2019-01-13T10:42:05.768Z,7.40
2019-01-13T10:44:35.978Z,7.73
2019-01-13T10:47:05.866Z,9.30
2019-01-13T10:49:35.888Z,12.97
2019-01-13T10:52:06.093Z,10.57
2019-01-13T10:54:36.127Z,8.50
2019-01-13T10:57:07.539Z,8.03
2019-01-13T10:59:37.695Z,9.27
2019-01-13T11:02:07.801Z,5.23
2019-01-13T11:04:40.190Z,6.13
2019-01-13T11:07:10.220Z,8.17
2019-01-13T11:09:40.732Z,8.00
2019-01-13T11:12:10.997Z,9.20
2019-01-13T11:14:40.981Z,15.77
2019-01-13T11:17:14.268Z,7.20
2019-01-13T11:19:44.367Z,7.50
2019-01-13T11:22:14.755Z,6.57
2019-01-13T11:24:44.811Z,5.50
2019-01-13T11:27:14.854Z,11.20
2019-01-13T11:29:45.272Z,13.10
2019-01-13T11:32:15.667Z,4.37
2019-01-13T11:34:45.616Z,5.13
2019-01-13T11:37:17.127Z,6.70
2019-01-13T11:39:46.959Z,5.37
2019-01-13T11:42:16.984Z,6.47
2019-01-13T11:44:46.863Z,4.93
2019-01-13T11:47:17.012Z,5.70
2019-01-13T11:49:48.031Z,9.57
2019-01-13T11:52:18.165Z,6.80
2019-01-13T11:54:51.248Z,3.17
2019-01-13T11:57:23.305Z,6.67
2019-01-13T11:59:53.792Z,6.10
2019-01-13T12:02:23.860Z,7.73
2019-01-13T12:04:54.131Z,9.47
2019-01-13T12:07:24.636Z,4.77
2019-01-13T12:09:54.820Z,5.30
2019-01-13T12:12:24.631Z,8.70
2019-01-13T12:14:54.565Z,3.80
2019-01-13T12:17:24.567Z,4.50
2019-01-13T12:19:54.619Z,6.63
2019-01-13T12:22:24.812Z,5.30
2019-01-13T12:24:54.949Z,6.67
2019-01-13T12:27:25.102Z,4.43
2019-01-13T12:29:56.400Z,7.30
2019-01-13T12:32:26.619Z,4.60
2019-01-13T12:34:56.635Z,7.60
2019-01-13T12:37:26.713Z,5.57
2019-01-13T12:39:56.668Z,4.10
2019-01-13T12:42:27.463Z,6.27
2019-01-13T12:44:57.505Z,5.50
2019-01-13T12:47:27.563Z,3.20
2019-01-13T12:49:57.555Z,4.83
2019-01-13T12:52:28.579Z,5.00
2019-01-13T12:54:58.609Z,5.87
2019-01-13T12:57:28.543Z,8.53
2019-01-13T12:59:58.505Z,7.27
2019-01-13T13:02:28.557Z,4.03
2019-01-13T13:05:00.189Z,6.97
2019-01-13T13:07:30.235Z,4.93
2019-01-13T13:10:00.555Z,6.10
2019-01-13T13:12:30.547Z,4.27
2019-01-13T13:15:00.679Z,4.53
2019-01-13T13:17:30.707Z,5.80
2019-01-13T13:20:01.743Z,5.17
2019-01-13T13:22:31.723Z,6.43
2019-01-13T13:25:01.667Z,5.37
2019-01-13T13:27:31.567Z,8.97
2019-01-13T13:30:01.596Z,3.27
2019-01-13T13:32:31.507Z,5.77
2019-01-13T13:35:01.473Z,6.07
2019-01-13T13:37:31.527Z,6.73
2019-01-13T13:40:04.221Z,5.80
2019-01-13T13:42:34.179Z,5.63
2019-01-13T13:45:04.736Z,6.60
2019-01-13T13:47:34.822Z,2.90
2019-01-13T13:50:05.641Z,3.20
2019-01-13T13:52:35.880Z,6.40
2019-01-13T13:55:06.901Z,3.13
2019-01-13T13:57:36.869Z,1.93
2019-01-13T14:00:10.781Z,4.73
2019-01-13T14:02:40.923Z,3.13
2019-01-13T14:05:11.260Z,5.60
2019-01-13T14:07:41.120Z,4.37
2019-01-13T14:10:17.863Z,4.23
2019-01-13T14:12:47.738Z,5.30
2019-01-13T14:15:17.555Z,7.13
2019-01-13T14:17:47.568Z,6.53
2019-01-13T14:20:18.835Z,3.80
2019-01-13T14:22:48.815Z,3.00
2019-01-13T14:25:18.626Z,3.07
2019-01-13T14:27:48.536Z,3.40
2019-01-13T14:30:24.267Z,3.47
2019-01-13T14:32:54.203Z,6.13
2019-01-13T14:35:24.232Z,3.30
2019-01-13T14:37:54.663Z,3.67
2019-01-13T14:40:26.005Z,4.17
2019-01-13T14:42:56.375Z,5.30
2019-01-13T14:45:27.451Z,4.57
2019-01-13T14:47:57.515Z,4.77
2019-01-13T14:50:32.300Z,7.00
2019-01-13T14:53:03.007Z,5.53
2019-01-13T14:55:32.978Z,4.50
2019-01-13T14:58:02.991Z,3.33
2019-01-13T15:00:33.495Z,6.17
2019-01-13T15:03:04.415Z,3.13
2019-01-13T15:05:34.532Z,3.87
2019-01-13T15:08:05.268Z,5.47
2019-01-13T15:10:35.296Z,4.77
2019-01-13T15:13:05.468Z,3.30
2019-01-13T15:15:35.883Z,2.77
2019-01-13T15:18:06.082Z,6.53
2019-01-13T15:20:36.083Z,5.20
2019-01-13T15:23:06.328Z,3.10
2019-01-13T15:25:36.434Z,4.73
2019-01-13T15:28:06.334Z,3.00
2019-01-13T15:30:37.690Z,6.17
2019-01-13T15:33:10.063Z,4.37
2019-01-13T15:35:40.232Z,10.03
2019-01-13T15:38:10.887Z,4.40
2019-01-13T15:40:42.973Z,3.80
2019-01-13T15:43:13.951Z,5.83
2019-01-13T15:45:43.811Z,4.63
2019-01-13T15:48:13.843Z,4.13
2019-01-13T15:50:45.444Z,3.17
2019-01-13T15:53:15.399Z,2.00
2019-01-13T15:55:45.516Z,4.53
2019-01-13T15:58:15.332Z,5.87
2019-01-13T16:00:45.149Z,3.33
2019-01-13T16:03:14.855Z,3.80
2019-01-13T16:05:44.917Z,2.70
2019-01-13T16:08:14.779Z,4.40
2019-01-13T16:10:44.811Z,5.97
2019-01-13T16:13:14.659Z,2.70
2019-01-13T16:15:44.651Z,4.17
2019-01-13T16:18:14.671Z,3.50
2019-01-13T16:20:45.973Z,3.77
2019-01-13T16:23:15.923Z,3.70
2019-01-13T16:25:45.817Z,4.87
2019-01-13T16:28:15.845Z,6.87
2019-01-13T16:30:45.740Z,4.13
2019-01-13T16:33:15.823Z,3.23
2019-01-13T16:35:45.795Z,3.37
2019-01-13T16:38:15.740Z,9.00
2019-01-13T16:40:45.775Z,4.63
2019-01-13T16:43:15.644Z,4.90
2019-01-13T16:45:45.643Z,4.97
2019-01-13T16:48:15.543Z,4.93
2019-01-13T16:50:45.583Z,5.23
2019-01-13T16:53:15.664Z,5.93
2019-01-13T16:55:45.723Z,6.73
2019-01-13T16:58:15.763Z,7.77
2019-01-13T17:00:45.743Z,14.07
2019-01-13T17:03:15.885Z,3.17
2019-01-13T17:05:45.932Z,0.70
2019-01-13T17:08:16.013Z,0.33
2019-01-13T17:10:46.167Z,1.03
2019-01-13T17:13:16.079Z,0.60
2019-01-13T17:15:46.148Z,0.40
2019-01-13T17:18:16.332Z,1.43
2019-01-13T17:20:46.764Z,0.33
2019-01-13T17:23:17.223Z,1.33
2019-01-13T17:25:47.324Z,0.40
2019-01-13T17:28:17.336Z,0.93
2019-01-13T17:30:47.412Z,0.20
2019-01-13T17:33:17.433Z,0.30
2019-01-13T17:35:47.429Z,0.30
2019-01-13T17:38:17.509Z,0.83
2019-01-13T17:40:47.379Z,1.37
2019-01-13T17:43:17.377Z,1.17
2019-01-13T17:45:47.183Z,6.40
2019-01-13T17:48:17.439Z,1.53
2019-01-13T17:50:50.795Z,4.07
2019-01-13T17:53:20.884Z,1.50
2019-01-13T17:55:50.909Z,4.70
2019-01-13T17:58:20.927Z,1.97
2019-01-13T18:01:29.664Z,0.80
2019-01-13T18:04:01.259Z,0.40
2019-01-13T18:06:31.204Z,1.00
2019-01-13T18:09:01.216Z,1.27
2019-01-13T18:11:31.239Z,0.50
2019-01-13T18:14:02.998Z,0.40
2019-01-13T18:16:33.126Z,0.50
2019-01-13T18:19:03.103Z,0.60
2019-01-13T18:21:33.271Z,0.47
2019-01-13T18:24:03.137Z,0.40
2019-01-13T18:26:34.272Z,0.53
2019-01-13T18:29:04.155Z,0.30
2019-01-13T18:31:34.143Z,0.43
2019-01-13T18:34:04.030Z,0.70
2019-01-13T18:36:33.992Z,3.70
2019-01-13T18:39:05.132Z,0.60
2019-01-13T18:41:35.025Z,0.80
2019-01-13T18:44:05.181Z,0.40
2019-01-13T18:46:35.159Z,0.33
2019-01-13T18:49:05.060Z,1.73
2019-01-13T18:51:35.127Z,1.17
2019-01-13T18:54:06.232Z,0.80
2019-01-13T18:56:37.058Z,1.07
2019-01-13T18:59:06.999Z,0.50
2019-01-13T19:01:37.122Z,0.60
2019-01-13T19:04:07.311Z,1.00
2019-01-13T19:06:37.365Z,0.93
2019-01-13T19:09:13.187Z,0.63
2019-01-13T19:11:47.011Z,0.83
2019-01-13T19:14:43.858Z,0.83
2019-01-13T19:17:15.571Z,0.50
2019-01-13T19:20:00.343Z,0.70
2019-01-13T19:22:31.703Z,1.70
2019-01-13T19:25:11.943Z,0.53
2019-01-13T19:27:41.980Z,0.50
2019-01-13T19:30:13.824Z,0.43
2019-01-13T19:32:43.976Z,0.37
2019-01-13T19:35:14.125Z,0.60
2019-01-13T19:37:44.060Z,1.30
2019-01-13T19:40:15.317Z,0.60
2019-01-13T19:42:45.520Z,0.57
2019-01-13T19:45:17.450Z,1.33
2019-01-13T19:47:47.421Z,1.20
2019-01-13T19:50:19.199Z,1.77
2019-01-13T19:52:49.385Z,0.30
2019-01-13T19:55:19.734Z,0.40
2019-01-13T19:57:51.407Z,0.40
2019-01-13T20:00:32.820Z,0.50
2019-01-13T20:03:04.210Z,4.47
2019-01-13T20:05:34.223Z,1.83
2019-01-13T20:08:06.496Z,0.50
2019-01-13T20:10:36.505Z,1.00
2019-01-13T20:13:06.635Z,0.47
2019-01-13T20:15:36.656Z,0.50
2019-01-13T20:18:06.760Z,0.47
2019-01-13T20:20:36.795Z,0.30
2019-01-13T20:23:06.808Z,0.50
2019-01-13T20:25:36.819Z,0.27
2019-01-13T20:28:06.960Z,0.30
2019-01-13T20:30:37.039Z,0.30
2019-01-13T20:33:07.433Z,1.03
2019-01-13T20:35:37.620Z,0.30
2019-01-13T20:38:07.551Z,0.20
2019-01-13T20:40:37.621Z,0.60
2019-01-13T20:43:07.658Z,0.50
2019-01-13T20:45:40.031Z,0.30
2019-01-13T20:48:10.081Z,1.80
2019-01-13T20:50:40.402Z,0.53
2019-01-13T20:53:11.696Z,0.30
2019-01-13T20:55:41.695Z,0.30
2019-01-13T20:58:11.744Z,0.60
2019-01-13T21:00:41.797Z,0.20
2019-01-13T21:03:11.698Z,0.87
2019-01-13T21:05:41.572Z,0.83
2019-01-13T21:08:11.595Z,0.97
2019-01-13T21:10:41.548Z,0.23
2019-01-13T21:13:11.535Z,0.10
2019-01-13T21:15:41.423Z,0.60
2019-01-13T21:18:11.484Z,0.77
2019-01-13T21:21:00.740Z,0.10
2019-01-13T21:23:30.733Z,0.43
2019-01-13T21:26:00.635Z,0.57
2019-01-13T21:28:30.655Z,0.60
2019-01-13T21:31:00.782Z,1.47
2019-01-13T21:33:30.671Z,0.57
2019-01-13T21:36:00.607Z,0.53
2019-01-13T21:38:30.660Z,0.50
2019-01-13T21:41:01.897Z,0.57
2019-01-13T21:43:31.785Z,2.63
2019-01-13T21:46:01.787Z,0.27
2019-01-13T21:48:32.063Z,0.57
2019-01-13T21:51:01.915Z,2.43
2019-01-13T21:53:32.860Z,0.40
2019-01-13T21:56:02.882Z,0.50
2019-01-13T21:58:32.703Z,0.20
2019-01-13T22:01:02.714Z,0.23
2019-01-13T22:03:32.723Z,0.90
2019-01-13T22:06:02.740Z,1.13
2019-01-13T22:08:32.767Z,1.07
2019-01-13T22:11:02.782Z,0.20
2019-01-13T22:13:32.685Z,1.07
2019-01-13T22:16:02.734Z,0.30
2019-01-13T22:18:33.536Z,2.77
2019-01-13T22:21:03.339Z,0.20
2019-01-13T22:23:33.275Z,0.53
2019-01-13T22:26:03.297Z,1.40
2019-01-13T22:28:33.204Z,2.13
2019-01-13T22:31:03.101Z,2.07
2019-01-13T22:33:33.035Z,1.27
2019-01-13T22:36:02.923Z,1.10
2019-01-13T22:38:32.947Z,1.00
2019-01-13T22:41:02.890Z,0.40
2019-01-13T22:43:32.867Z,0.77
2019-01-13T22:46:02.912Z,0.73
2019-01-13T22:48:32.935Z,0.90
2019-01-13T22:51:02.935Z,3.17
2019-01-13T22:53:32.871Z,1.87
2019-01-13T22:56:02.853Z,3.60
2019-01-13T22:58:32.799Z,1.70
2019-01-13T23:01:31.987Z,2.47
2019-01-13T23:04:08.069Z,4.27
2019-01-13T23:06:38.189Z,2.33
2019-01-13T23:09:12.112Z,3.03
2019-01-13T23:11:42.296Z,1.50
2019-01-13T23:14:12.528Z,2.80
2019-01-13T23:16:43.014Z,1.73
2019-01-13T23:19:13.188Z,3.57
2019-01-13T23:21:43.336Z,2.83
2019-01-13T23:24:13.400Z,1.47
2019-01-13T23:26:43.531Z,3.00
2019-01-13T23:29:13.659Z,2.70
2019-01-13T23:31:43.560Z,5.10
2019-01-13T23:34:13.596Z,2.37
2019-01-13T23:36:43.592Z,1.17
2019-01-13T23:39:13.608Z,1.83
2019-01-13T23:41:43.632Z,1.63
2019-01-13T23:44:13.543Z,1.60
2019-01-13T23:46:43.548Z,2.33
2019-01-13T23:49:13.498Z,3.03
2019-01-13T23:51:43.512Z,3.77
2019-01-13T23:54:13.388Z,2.83
2019-01-13T23:56:43.922Z,3.27
2019-01-13T23:59:14.036Z,2.77
